sensor_id;sensor_type;location;lat;lon;timestamp;pressure;altitude;pressure_sealevel;temperature;humidity
41062;BME280;26812;42.662;23.352;2023-08-21T00:02:16;95246.09;;;23.52;54.29
41062;BME280;26812;42.662;23.352;2023-08-21T00:04:41;95243.72;;;23.40;54.54
41062;BME280;26812;42.662;23.352;2023-08-21T00:07:06;95258.31;;;23.80;54.03
41062;BME280;26812;42.662;23.352;2023-08-21T00:09:34;95260.28;;;24.01;53.22
41062;BME280;26812;42.662;23.352;2023-08-21T00:11:59;95255.94;;;23.82;53.42
41062;BME280;26812;42.662;23.352;2023-08-21T00:14:25;95245.72;;;24.07;52.74
41062;BME280;26812;42.662;23.352;2023-08-21T00:16:50;95244.19;;;23.89;53.50
41062;BME280;26812;42.662;23.352;2023-08-21T00:19:15;95249.28;;;23.90;53.42
41062;BME280;26812;42.662;23.352;2023-08-21T00:21:41;95253.19;;;24.03;53.41
41062;BME280;26812;42.662;23.352;2023-08-21T00:24:06;95258.31;;;23.98;53.33
41062;BME280;26812;42.662;23.352;2023-08-21T00:26:31;95254.00;;;23.97;53.52
41062;BME280;26812;42.662;23.352;2023-08-21T00:29:03;95254.75;;;24.08;53.61
41062;BME280;26812;42.662;23.352;2023-08-21T00:31:29;95247.31;;;23.83;53.85
41062;BME280;26812;42.662;23.352;2023-08-21T00:33:54;95237.09;;;23.84;53.62
41062;BME280;26812;42.662;23.352;2023-08-21T00:36:19;95254.34;;;23.49;54.66
41062;BME280;26812;42.662;23.352;2023-08-21T00:38:45;95242.94;;;23.50;54.42
41062;BME280;26812;42.662;23.352;2023-08-21T00:41:11;95239.81;;;23.52;54.21
41062;BME280;26812;42.662;23.352;2023-08-21T00:43:37;95259.00;;;23.16;55.69
41062;BME280;26812;42.662;23.352;2023-08-21T00:46:02;95263.38;;;23.32;55.51
41062;BME280;26812;42.662;23.352;2023-08-21T00:48:28;95257.44;;;23.19;55.85
41062;BME280;26812;42.662;23.352;2023-08-21T00:50:54;95256.34;;;23.56;54.86
41062;BME280;26812;42.662;23.352;2023-08-21T00:53:19;95257.88;;;23.39;55.20
41062;BME280;26812;42.662;23.352;2023-08-21T00:55:45;95267.69;;;23.54;55.11
41062;BME280;26812;42.662;23.352;2023-08-21T00:58:10;95262.97;;;23.37;55.27
41062;BME280;26812;42.662;23.352;2023-08-21T01:00:40;95272.00;;;23.51;55.21
41062;BME280;26812;42.662;23.352;2023-08-21T01:03:06;95268.09;;;23.49;54.76
41062;BME280;26812;42.662;23.352;2023-08-21T01:05:31;95262.56;;;23.28;55.61
41062;BME280;26812;42.662;23.352;2023-08-21T01:08:02;95260.56;;;23.14;56.06
41062;BME280;26812;42.662;23.352;2023-08-21T01:13:01;95262.91;;;23.12;56.15
41062;BME280;26812;42.662;23.352;2023-08-21T01:15:30;95266.75;;;22.86;57.12
41062;BME280;26812;42.662;23.352;2023-08-21T01:17:57;95259.75;;;23.06;56.04
41062;BME280;26812;42.662;23.352;2023-08-21T01:20:23;95240.38;;;22.67;56.83
41062;BME280;26812;42.662;23.352;2023-08-21T01:22:49;95252.63;;;22.87;56.66
41062;BME280;26812;42.662;23.352;2023-08-21T01:25:15;95253.00;;;22.86;56.35
41062;BME280;26812;42.662;23.352;2023-08-21T01:27:47;95265.13;;;22.78;56.93
41062;BME280;26812;42.662;23.352;2023-08-21T01:30:13;95270.34;;;22.97;56.33
41062;BME280;26812;42.662;23.352;2023-08-21T01:32:49;95262.53;;;23.17;56.70
41062;BME280;26812;42.662;23.352;2023-08-21T01:35:17;95250.28;;;22.93;56.57
41062;BME280;26812;42.662;23.352;2023-08-21T01:37:44;95262.50;;;23.06;56.57
41062;BME280;26812;42.662;23.352;2023-08-21T01:40:10;95268.78;;;23.07;56.47
41062;BME280;26812;42.662;23.352;2023-08-21T01:42:35;95255.38;;;22.95;56.64
41062;BME280;26812;42.662;23.352;2023-08-21T01:45:01;95281.22;;;22.76;57.31
41062;BME280;26812;42.662;23.352;2023-08-21T01:47:26;95257.97;;;22.55;58.16
41062;BME280;26812;42.662;23.352;2023-08-21T01:49:51;95273.81;;;22.90;57.53
41062;BME280;26812;42.662;23.352;2023-08-21T01:52:18;95258.81;;;22.67;58.15
41062;BME280;26812;42.662;23.352;2023-08-21T01:54:43;95263.31;;;22.34;59.33
41062;BME280;26812;42.662;23.352;2023-08-21T01:57:09;95270.28;;;22.83;58.28
41062;BME280;26812;42.662;23.352;2023-08-21T01:59:34;95275.69;;;22.69;58.53
41062;BME280;26812;42.662;23.352;2023-08-21T02:01:59;95258.06;;;22.80;58.16
41062;BME280;26812;42.662;23.352;2023-08-21T02:04:25;95267.06;;;22.70;58.88
41062;BME280;26812;42.662;23.352;2023-08-21T02:06:50;95261.19;;;22.75;58.55
41062;BME280;26812;42.662;23.352;2023-08-21T02:09:16;95258.56;;;22.97;58.00
41062;BME280;26812;42.662;23.352;2023-08-21T02:11:41;95252.88;;;22.65;58.73
41062;BME280;26812;42.662;23.352;2023-08-21T02:14:06;95254.78;;;22.43;59.30
41062;BME280;26812;42.662;23.352;2023-08-21T02:16:32;95277.75;;;22.93;57.88
41062;BME280;26812;42.662;23.352;2023-08-21T02:18:58;95259.56;;;22.63;58.60
41062;BME280;26812;42.662;23.352;2023-08-21T02:21:23;95255.69;;;22.72;58.50
41062;BME280;26812;42.662;23.352;2023-08-21T02:23:49;95233.66;;;22.65;58.29
41062;BME280;26812;42.662;23.352;2023-08-21T02:26:14;95258.19;;;22.98;57.92
41062;BME280;26812;42.662;23.352;2023-08-21T02:28:39;95245.81;;;22.56;58.65
41062;BME280;26812;42.662;23.352;2023-08-21T02:31:05;95254.84;;;22.64;58.38
41062;BME280;26812;42.662;23.352;2023-08-21T02:33:33;95256.75;;;22.49;59.00
41062;BME280;26812;42.662;23.352;2023-08-21T02:35:59;95260.09;;;22.87;58.34
41062;BME280;26812;42.662;23.352;2023-08-21T02:38:24;95247.53;;;22.86;56.90
41062;BME280;26812;42.662;23.352;2023-08-21T02:40:50;95265.19;;;22.88;57.45
41062;BME280;26812;42.662;23.352;2023-08-21T02:43:15;95260.81;;;22.77;57.20
41062;BME280;26812;42.662;23.352;2023-08-21T02:45:41;95242.88;;;22.24;56.44
41062;BME280;26812;42.662;23.352;2023-08-21T02:48:07;95252.47;;;22.59;56.51
41062;BME280;26812;42.662;23.352;2023-08-21T02:50:32;95266.28;;;22.73;56.31
41062;BME280;26812;42.662;23.352;2023-08-21T02:52:58;95268.53;;;22.50;57.50
41062;BME280;26812;42.662;23.352;2023-08-21T02:55:23;95263.06;;;22.60;56.87
41062;BME280;26812;42.662;23.352;2023-08-21T02:57:55;95259.44;;;22.35;57.20
41062;BME280;26812;42.662;23.352;2023-08-21T03:00:21;95275.19;;;22.49;57.17
41062;BME280;26812;42.662;23.352;2023-08-21T03:02:46;95269.75;;;22.63;56.86
41062;BME280;26812;42.662;23.352;2023-08-21T03:05:12;95260.25;;;22.39;57.43
41062;BME280;26812;42.662;23.352;2023-08-21T03:07:38;95267.50;;;22.10;58.31
41062;BME280;26812;42.662;23.352;2023-08-21T03:10:05;95266.94;;;22.45;57.52
41062;BME280;26812;42.662;23.352;2023-08-21T03:12:30;95257.84;;;22.34;57.42
41062;BME280;26812;42.662;23.352;2023-08-21T03:14:56;95278.69;;;22.46;57.84
41062;BME280;26812;42.662;23.352;2023-08-21T03:17:21;95272.41;;;22.42;57.81
41062;BME280;26812;42.662;23.352;2023-08-21T03:19:46;95279.00;;;22.30;58.00
41062;BME280;26812;42.662;23.352;2023-08-21T03:24:37;95276.31;;;22.37;57.74
41062;BME280;26812;42.662;23.352;2023-08-21T03:27:03;95290.03;;;22.37;57.47
41062;BME280;26812;42.662;23.352;2023-08-21T03:29:28;95293.00;;;22.11;58.41
41062;BME280;26812;42.662;23.352;2023-08-21T03:31:54;95296.25;;;22.34;57.44
41062;BME280;26812;42.662;23.352;2023-08-21T03:34:20;95280.47;;;22.13;58.22
41062;BME280;26812;42.662;23.352;2023-08-21T03:36:45;95287.16;;;22.16;58.75
41062;BME280;26812;42.662;23.352;2023-08-21T03:39:11;95293.06;;;22.21;58.26
41062;BME280;26812;42.662;23.352;2023-08-21T03:41:36;95284.00;;;22.14;58.54
41062;BME280;26812;42.662;23.352;2023-08-21T03:44:02;95275.03;;;22.24;57.98
41062;BME280;26812;42.662;23.352;2023-08-21T03:46:27;95271.69;;;21.97;59.03
41062;BME280;26812;42.662;23.352;2023-08-21T03:48:52;95273.66;;;22.00;58.99
41062;BME280;26812;42.662;23.352;2023-08-21T03:51:18;95291.41;;;22.06;59.09
41062;BME280;26812;42.662;23.352;2023-08-21T03:53:43;95287.50;;;22.11;59.13
41062;BME280;26812;42.662;23.352;2023-08-21T03:56:08;95275.56;;;21.92;60.00
41062;BME280;26812;42.662;23.352;2023-08-21T03:58:34;95292.19;;;22.07;59.75
41062;BME280;26812;42.662;23.352;2023-08-21T04:01:00;95286.34;;;22.15;59.45
41062;BME280;26812;42.662;23.352;2023-08-21T04:03:25;95286.94;;;21.91;60.52
41062;BME280;26812;42.662;23.352;2023-08-21T04:05:53;95285.28;;;21.79;61.11
41062;BME280;26812;42.662;23.352;2023-08-21T04:08:18;95290.09;;;21.96;60.69
41062;BME280;26812;42.662;23.352;2023-08-21T04:10:43;95286.94;;;21.94;61.26
41062;BME280;26812;42.662;23.352;2023-08-21T04:13:09;95275.50;;;21.82;60.94
41062;BME280;26812;42.662;23.352;2023-08-21T04:15:34;95306.19;;;22.01;60.72
41062;BME280;26812;42.662;23.352;2023-08-21T04:18:03;95307.66;;;21.85;61.21
41062;BME280;26812;42.662;23.352;2023-08-21T04:20:28;95302.44;;;22.17;60.49
41062;BME280;26812;42.662;23.352;2023-08-21T04:22:54;95304.00;;;22.18;60.37
41062;BME280;26812;42.662;23.352;2023-08-21T04:25:19;95301.28;;;22.21;60.19
41062;BME280;26812;42.662;23.352;2023-08-21T04:27:44;95302.88;;;22.22;60.55
41062;BME280;26812;42.662;23.352;2023-08-21T04:30:16;95293.47;;;22.27;60.46
41062;BME280;26812;42.662;23.352;2023-08-21T04:32:41;95307.78;;;22.02;61.02
41062;BME280;26812;42.662;23.352;2023-08-21T04:35:07;95303.66;;;22.23;60.26
41062;BME280;26812;42.662;23.352;2023-08-21T04:37:34;95295.94;;;22.39;59.59
41062;BME280;26812;42.662;23.352;2023-08-21T04:39:59;95296.56;;;22.18;60.29
41062;BME280;26812;42.662;23.352;2023-08-21T04:42:24;95304.97;;;21.95;61.55
41062;BME280;26812;42.662;23.352;2023-08-21T04:44:50;95298.47;;;22.07;60.54
41062;BME280;26812;42.662;23.352;2023-08-21T04:47:23;95307.19;;;22.23;59.89
41062;BME280;26812;42.662;23.352;2023-08-21T04:49:52;95308.72;;;22.21;59.98
41062;BME280;26812;42.662;23.352;2023-08-21T04:52:18;95314.78;;;22.44;59.47
41062;BME280;26812;42.662;23.352;2023-08-21T04:54:43;95310.03;;;22.38;60.02
41062;BME280;26812;42.662;23.352;2023-08-21T04:57:08;95308.84;;;22.35;60.20
41062;BME280;26812;42.662;23.352;2023-08-21T04:59:37;95318.38;;;22.59;59.62
41062;BME280;26812;42.662;23.352;2023-08-21T05:02:03;95320.44;;;22.73;58.02
41062;BME280;26812;42.662;23.352;2023-08-21T05:04:28;95317.78;;;22.87;57.75
41062;BME280;26812;42.662;23.352;2023-08-21T05:06:54;95319.06;;;23.14;56.30
41062;BME280;26812;42.662;23.352;2023-08-21T05:09:19;95308.44;;;23.02;57.35
41062;BME280;26812;42.662;23.352;2023-08-21T05:11:45;95318.38;;;23.46;56.73
41062;BME280;26812;42.662;23.352;2023-08-21T05:14:10;95317.16;;;23.36;55.84
41062;BME280;26812;42.662;23.352;2023-08-21T05:16:35;95328.97;;;23.51;55.41
41062;BME280;26812;42.662;23.352;2023-08-21T05:19:01;95324.34;;;23.66;54.32
41062;BME280;26812;42.662;23.352;2023-08-21T05:21:27;95338.88;;;23.77;53.92
41062;BME280;26812;42.662;23.352;2023-08-21T05:23:52;95334.56;;;24.04;52.90
41062;BME280;26812;42.662;23.352;2023-08-21T05:26:19;95339.66;;;23.84;53.25
41062;BME280;26812;42.662;23.352;2023-08-21T05:28:45;95331.81;;;24.04;53.24
41062;BME280;26812;42.662;23.352;2023-08-21T05:31:10;95332.63;;;24.30;53.00
41062;BME280;26812;42.662;23.352;2023-08-21T05:33:35;95328.69;;;24.41;52.89
41062;BME280;26812;42.662;23.352;2023-08-21T05:36:01;95327.53;;;24.32;52.91
41062;BME280;26812;42.662;23.352;2023-08-21T05:38:26;95333.41;;;24.41;52.70
41062;BME280;26812;42.662;23.352;2023-08-21T05:40:52;95327.06;;;24.69;52.47
41062;BME280;26812;42.662;23.352;2023-08-21T05:43:17;95323.88;;;24.85;50.79
41062;BME280;26812;42.662;23.352;2023-08-21T05:45:42;95308.59;;;24.62;51.61
41062;BME280;26812;42.662;23.352;2023-08-21T05:48:08;95325.00;;;24.98;51.37
41062;BME280;26812;42.662;23.352;2023-08-21T05:50:41;95320.66;;;25.11;50.20
41062;BME280;26812;42.662;23.352;2023-08-21T05:53:07;95318.28;;;25.10;50.50
41062;BME280;26812;42.662;23.352;2023-08-21T05:55:32;95327.38;;;24.96;51.22
41062;BME280;26812;42.662;23.352;2023-08-21T05:57:58;95325.75;;;25.16;50.42
41062;BME280;26812;42.662;23.352;2023-08-21T06:00:23;95326.91;;;25.26;50.19
41062;BME280;26812;42.662;23.352;2023-08-21T06:02:49;95324.44;;;25.46;49.98
41062;BME280;26812;42.662;23.352;2023-08-21T06:05:14;95312.88;;;25.68;48.78
41062;BME280;26812;42.662;23.352;2023-08-21T06:07:40;95321.88;;;25.80;48.87
41062;BME280;26812;42.662;23.352;2023-08-21T06:10:09;95325.03;;;25.82;48.99
41062;BME280;26812;42.662;23.352;2023-08-21T06:12:38;95324.13;;;25.95;47.88
41062;BME280;26812;42.662;23.352;2023-08-21T06:15:03;95334.59;;;26.18;47.46
41062;BME280;26812;42.662;23.352;2023-08-21T06:17:29;95337.50;;;26.04;48.08
41062;BME280;26812;42.662;23.352;2023-08-21T06:19:54;95332.91;;;26.31;46.62
41062;BME280;26812;42.662;23.352;2023-08-21T06:22:20;95324.06;;;26.54;46.11
41062;BME280;26812;42.662;23.352;2023-08-21T06:24:46;95335.69;;;26.76;45.08
41062;BME280;26812;42.662;23.352;2023-08-21T06:27:11;95326.72;;;26.65;44.97
41062;BME280;26812;42.662;23.352;2023-08-21T06:29:36;95332.53;;;26.74;45.99
41062;BME280;26812;42.662;23.352;2023-08-21T06:32:05;95322.44;;;26.57;46.17
41062;BME280;26812;42.662;23.352;2023-08-21T06:34:31;95336.84;;;26.79;45.34
41062;BME280;26812;42.662;23.352;2023-08-21T06:36:56;95330.03;;;26.87;45.07
41062;BME280;26812;42.662;23.352;2023-08-21T06:39:21;95340.50;;;27.06;44.66
41062;BME280;26812;42.662;23.352;2023-08-21T06:41:47;95308.16;;;27.03;44.33
41062;BME280;26812;42.662;23.352;2023-08-21T06:44:12;95340.28;;;27.24;44.21
41062;BME280;26812;42.662;23.352;2023-08-21T06:46:37;95331.19;;;27.27;44.23
41062;BME280;26812;42.662;23.352;2023-08-21T06:49:03;95316.78;;;27.39;43.80
41062;BME280;26812;42.662;23.352;2023-08-21T06:51:28;95305.25;;;27.44;42.96
41062;BME280;26812;42.662;23.352;2023-08-21T06:53:54;95341.41;;;27.91;42.67
41062;BME280;26812;42.662;23.352;2023-08-21T06:56:19;95342.44;;;28.01;42.06
41062;BME280;26812;42.662;23.352;2023-08-21T06:58:44;95342.53;;;28.21;41.35
41062;BME280;26812;42.662;23.352;2023-08-21T07:01:10;95324.13;;;28.34;40.43
41062;BME280;26812;42.662;23.352;2023-08-21T07:03:42;95331.59;;;28.60;39.66
41062;BME280;26812;42.662;23.352;2023-08-21T07:06:08;95337.63;;;28.55;40.57
41062;BME280;26812;42.662;23.352;2023-08-21T07:08:34;95324.69;;;28.68;40.30
41062;BME280;26812;42.662;23.352;2023-08-21T07:11:02;95325.06;;;28.70;40.31
41062;BME280;26812;42.662;23.352;2023-08-21T07:13:29;95337.78;;;28.91;39.77
41062;BME280;26812;42.662;23.352;2023-08-21T07:15:54;95343.13;;;29.22;38.71
41062;BME280;26812;42.662;23.352;2023-08-21T07:18:20;95343.25;;;29.34;38.09
41062;BME280;26812;42.662;23.352;2023-08-21T07:20:45;95328.53;;;29.57;38.22
41062;BME280;26812;42.662;23.352;2023-08-21T07:23:11;95336.94;;;29.54;38.12
41062;BME280;26812;42.662;23.352;2023-08-21T07:25:36;95340.34;;;29.61;38.20
41062;BME280;26812;42.662;23.352;2023-08-21T07:28:02;95314.13;;;29.46;38.76
41062;BME280;26812;42.662;23.352;2023-08-21T07:30:27;95330.66;;;29.70;37.99
41062;BME280;26812;42.662;23.352;2023-08-21T07:32:53;95331.28;;;29.77;37.65
41062;BME280;26812;42.662;23.352;2023-08-21T07:35:19;95324.31;;;29.69;36.87
41062;BME280;26812;42.662;23.352;2023-08-21T07:37:45;95333.44;;;29.70;37.06
41062;BME280;26812;42.662;23.352;2023-08-21T07:40:11;95331.81;;;29.52;37.70
41062;BME280;26812;42.662;23.352;2023-08-21T07:42:37;95316.63;;;29.77;36.94
41062;BME280;26812;42.662;23.352;2023-08-21T07:45:03;95331.34;;;30.10;36.84
41062;BME280;26812;42.662;23.352;2023-08-21T07:47:32;95314.22;;;30.27;35.68
41062;BME280;26812;42.662;23.352;2023-08-21T07:49:57;95329.75;;;30.57;34.72
41062;BME280;26812;42.662;23.352;2023-08-21T07:52:23;95321.06;;;30.55;35.03
41062;BME280;26812;42.662;23.352;2023-08-21T07:54:52;95321.09;;;30.72;33.90
41062;BME280;26812;42.662;23.352;2023-08-21T07:57:18;95325.34;;;31.05;34.21
41062;BME280;26812;42.662;23.352;2023-08-21T07:59:43;95318.41;;;30.68;35.07
41062;BME280;26812;42.662;23.352;2023-08-21T08:02:08;95327.91;;;30.83;34.51
41062;BME280;26812;42.662;23.352;2023-08-21T08:04:36;95324.13;;;31.35;34.02
41062;BME280;26812;42.662;23.352;2023-08-21T08:07:02;95323.13;;;31.42;32.15
41062;BME280;26812;42.662;23.352;2023-08-21T08:09:27;95307.91;;;31.17;33.28
41062;BME280;26812;42.662;23.352;2023-08-21T08:11:52;95321.31;;;31.23;33.88
41062;BME280;26812;42.662;23.352;2023-08-21T08:14:18;95314.06;;;30.96;34.50
41062;BME280;26812;42.662;23.352;2023-08-21T08:16:43;95319.22;;;31.39;34.16
41062;BME280;26812;42.662;23.352;2023-08-21T08:19:08;95304.78;;;31.57;33.45
41062;BME280;26812;42.662;23.352;2023-08-21T08:21:34;95308.72;;;31.72;32.81
41062;BME280;26812;42.662;23.352;2023-08-21T08:23:59;95291.88;;;31.63;32.34
41062;BME280;26812;42.662;23.352;2023-08-21T08:26:24;95307.97;;;31.85;32.51
41062;BME280;26812;42.662;23.352;2023-08-21T08:28:50;95301.47;;;32.13;32.26
41062;BME280;26812;42.662;23.352;2023-08-21T08:31:22;95310.38;;;32.08;32.47
41062;BME280;26812;42.662;23.352;2023-08-21T08:33:49;95304.28;;;32.00;32.63
41062;BME280;26812;42.662;23.352;2023-08-21T08:36:14;95278.63;;;31.80;32.92
41062;BME280;26812;42.662;23.352;2023-08-21T08:38:39;95296.78;;;32.23;32.06
41062;BME280;26812;42.662;23.352;2023-08-21T08:41:12;95303.59;;;32.34;31.21
41062;BME280;26812;42.662;23.352;2023-08-21T08:43:40;95300.59;;;32.16;31.29
41062;BME280;26812;42.662;23.352;2023-08-21T08:46:07;95297.44;;;31.63;31.46
41062;BME280;26812;42.662;23.352;2023-08-21T08:48:34;95283.31;;;31.58;32.11
41062;BME280;26812;42.662;23.352;2023-08-21T08:51:01;95282.97;;;31.68;32.62
41062;BME280;26812;42.662;23.352;2023-08-21T08:53:29;95289.88;;;32.02;31.42
41062;BME280;26812;42.662;23.352;2023-08-21T08:55:55;95272.91;;;32.34;31.23
41062;BME280;26812;42.662;23.352;2023-08-21T08:58:20;95274.28;;;32.30;30.88
41062;BME280;26812;42.662;23.352;2023-08-21T09:00:46;95282.06;;;32.48;29.75
41062;BME280;26812;42.662;23.352;2023-08-21T09:03:11;95279.28;;;32.22;31.13
41062;BME280;26812;42.662;23.352;2023-08-21T09:05:39;95274.66;;;32.54;30.20
41062;BME280;26812;42.662;23.352;2023-08-21T09:10:36;95277.78;;;32.90;29.45
41062;BME280;26812;42.662;23.352;2023-08-21T09:13:08;95275.13;;;32.74;29.16
41062;BME280;26812;42.662;23.352;2023-08-21T09:15:35;95275.13;;;32.74;29.67
41062;BME280;26812;42.662;23.352;2023-08-21T09:18:01;95278.06;;;32.83;29.32
41062;BME280;26812;42.662;23.352;2023-08-21T09:20:27;95274.47;;;33.04;29.13
41062;BME280;26812;42.662;23.352;2023-08-21T09:22:53;95273.59;;;33.08;28.63
41062;BME280;26812;42.662;23.352;2023-08-21T09:25:20;95275.03;;;32.78;28.30
41062;BME280;26812;42.662;23.352;2023-08-21T09:27:45;95283.63;;;32.83;28.95
41062;BME280;26812;42.662;23.352;2023-08-21T09:30:11;95275.25;;;33.27;28.15
41062;BME280;26812;42.662;23.352;2023-08-21T09:35:20;95260.47;;;32.95;28.52
41062;BME280;26812;42.662;23.352;2023-08-21T09:37:48;95265.22;;;33.08;27.96
41062;BME280;26812;42.662;23.352;2023-08-21T09:40:15;95256.38;;;33.09;28.86
41062;BME280;26812;42.662;23.352;2023-08-21T09:42:41;95249.97;;;33.52;27.27
41062;BME280;26812;42.662;23.352;2023-08-21T09:45:06;95244.75;;;33.63;27.21
41062;BME280;26812;42.662;23.352;2023-08-21T09:47:32;95248.97;;;33.68;27.16
41062;BME280;26812;42.662;23.352;2023-08-21T09:49:59;95252.34;;;33.63;27.63
41062;BME280;26812;42.662;23.352;2023-08-21T09:52:26;95246.44;;;33.92;27.09
41062;BME280;26812;42.662;23.352;2023-08-21T09:54:53;95248.06;;;34.11;26.73
41062;BME280;26812;42.662;23.352;2023-08-21T09:57:21;95247.19;;;33.83;27.66
41062;BME280;26812;42.662;23.352;2023-08-21T09:59:51;95236.53;;;34.00;26.63
41062;BME280;26812;42.662;23.352;2023-08-21T10:02:18;95239.19;;;34.04;26.48
41062;BME280;26812;42.662;23.352;2023-08-21T10:04:45;95234.69;;;34.15;26.52
41062;BME280;26812;42.662;23.352;2023-08-21T10:07:11;95236.66;;;33.97;26.31
41062;BME280;26812;42.662;23.352;2023-08-21T10:09:40;95232.47;;;33.92;26.34
41062;BME280;26812;42.662;23.352;2023-08-21T10:12:09;95235.00;;;34.08;26.27
41062;BME280;26812;42.662;23.352;2023-08-21T10:14:35;95228.81;;;34.22;26.18
41062;BME280;26812;42.662;23.352;2023-08-21T10:17:01;95224.94;;;33.71;25.91
41062;BME280;26812;42.662;23.352;2023-08-21T10:19:32;95232.06;;;33.72;26.35
41062;BME280;26812;42.662;23.352;2023-08-21T10:21:58;95228.34;;;33.75;26.38
41062;BME280;26812;42.662;23.352;2023-08-21T10:24:28;95219.94;;;34.06;26.28
41062;BME280;26812;42.662;23.352;2023-08-21T10:26:59;95218.53;;;34.10;26.57
41062;BME280;26812;42.662;23.352;2023-08-21T10:29:25;95211.03;;;33.89;26.48
41062;BME280;26812;42.662;23.352;2023-08-21T10:32:04;95204.88;;;34.12;25.58
41062;BME280;26812;42.662;23.352;2023-08-21T10:34:34;95209.25;;;33.73;26.16
41062;BME280;26812;42.662;23.352;2023-08-21T10:39:33;95200.72;;;33.77;26.57
41062;BME280;26812;42.662;23.352;2023-08-21T10:42:08;95189.03;;;34.09;25.46
41062;BME280;26812;42.662;23.352;2023-08-21T10:44:54;95201.41;;;33.90;25.41
41062;BME280;26812;42.662;23.352;2023-08-21T10:49:54;95192.25;;;33.49;27.23
41062;BME280;26812;42.662;23.352;2023-08-21T10:52:25;95197.97;;;33.86;26.93
41062;BME280;26812;42.662;23.352;2023-08-21T10:54:53;95183.75;;;34.20;26.09
41062;BME280;26812;42.662;23.352;2023-08-21T10:57:19;95179.25;;;34.23;25.69
41062;BME280;26812;42.662;23.352;2023-08-21T10:59:59;95188.88;;;34.04;26.31
41062;BME280;26812;42.662;23.352;2023-08-21T11:02:26;95172.56;;;34.20;25.25
41062;BME280;26812;42.662;23.352;2023-08-21T11:04:55;95189.09;;;34.73;24.60
41062;BME280;26812;42.662;23.352;2023-08-21T11:07:22;95167.31;;;34.86;24.59
41062;BME280;26812;42.662;23.352;2023-08-21T11:09:48;95164.06;;;34.88;23.96
41062;BME280;26812;42.662;23.352;2023-08-21T11:12:16;95169.31;;;34.22;25.08
41062;BME280;26812;42.662;23.352;2023-08-21T11:14:42;95155.16;;;33.98;24.79
41062;BME280;26812;42.662;23.352;2023-08-21T11:17:09;95169.75;;;33.93;25.97
41062;BME280;26812;42.662;23.352;2023-08-21T11:19:36;95143.84;;;34.11;25.96
41062;BME280;26812;42.662;23.352;2023-08-21T11:22:02;95159.88;;;34.65;24.67
41062;BME280;26812;42.662;23.352;2023-08-21T11:27:04;95178.16;;;34.20;25.44
41062;BME280;26812;42.662;23.352;2023-08-21T11:29:35;95141.44;;;33.73;25.88
41062;BME280;26812;42.662;23.352;2023-08-21T11:32:02;95153.59;;;33.88;26.11
41062;BME280;26812;42.662;23.352;2023-08-21T11:34:28;95161.09;;;33.60;25.25
41062;BME280;26812;42.662;23.352;2023-08-21T11:36:54;95149.50;;;33.80;25.44
41062;BME280;26812;42.662;23.352;2023-08-21T11:39:19;95145.72;;;34.14;24.45
41062;BME280;26812;42.662;23.352;2023-08-21T11:41:55;95159.13;;;34.37;24.96
41062;BME280;26812;42.662;23.352;2023-08-21T11:44:21;95132.53;;;34.33;24.17
41062;BME280;26812;42.662;23.352;2023-08-21T11:46:47;95158.91;;;34.77;23.77
41062;BME280;26812;42.662;23.352;2023-08-21T11:49:12;95140.88;;;34.78;23.18
41062;BME280;26812;42.662;23.352;2023-08-21T11:51:39;95150.53;;;34.86;22.78
41062;BME280;26812;42.662;23.352;2023-08-21T11:54:04;95155.97;;;34.72;22.79
41062;BME280;26812;42.662;23.352;2023-08-21T11:56:31;95144.84;;;35.23;22.42
41062;BME280;26812;42.662;23.352;2023-08-21T11:58:56;95152.13;;;35.39;22.31
41062;BME280;26812;42.662;23.352;2023-08-21T12:01:24;95147.19;;;35.25;22.08
41062;BME280;26812;42.662;23.352;2023-08-21T12:03:49;95135.13;;;35.42;21.57
41062;BME280;26812;42.662;23.352;2023-08-21T12:06:22;95137.19;;;35.33;22.68
41062;BME280;26812;42.662;23.352;2023-08-21T12:08:47;95144.53;;;35.63;22.05
41062;BME280;26812;42.662;23.352;2023-08-21T12:11:13;95133.09;;;35.85;21.22
41062;BME280;26812;42.662;23.352;2023-08-21T12:13:38;95124.97;;;35.87;21.29
41062;BME280;26812;42.662;23.352;2023-08-21T12:16:04;95134.53;;;35.71;21.43
41062;BME280;26812;42.662;23.352;2023-08-21T12:18:29;95126.56;;;35.04;22.35
41062;BME280;26812;42.662;23.352;2023-08-21T12:20:55;95132.41;;;35.24;21.88
41062;BME280;26812;42.662;23.352;2023-08-21T12:23:20;95144.75;;;35.51;22.68
41062;BME280;26812;42.662;23.352;2023-08-21T12:25:53;95104.78;;;35.74;21.10
41062;BME280;26812;42.662;23.352;2023-08-21T12:28:19;95112.06;;;35.57;21.86
41062;BME280;26812;42.662;23.352;2023-08-21T12:30:44;95118.31;;;35.75;21.71
41062;BME280;26812;42.662;23.352;2023-08-21T12:33:16;95129.25;;;35.97;21.50
41062;BME280;26812;42.662;23.352;2023-08-21T12:35:41;95107.81;;;36.33;20.74
41062;BME280;26812;42.662;23.352;2023-08-21T12:38:11;95118.34;;;35.99;20.64
41062;BME280;26812;42.662;23.352;2023-08-21T12:40:38;95113.47;;;35.76;20.62
41062;BME280;26812;42.662;23.352;2023-08-21T12:43:03;95122.91;;;35.64;20.38
41062;BME280;26812;42.662;23.352;2023-08-21T12:45:28;95127.31;;;35.56;20.66
41062;BME280;26812;42.662;23.352;2023-08-21T12:47:54;95110.44;;;35.65;20.40
41062;BME280;26812;42.662;23.352;2023-08-21T12:50:19;95100.63;;;35.93;19.75
41062;BME280;26812;42.662;23.352;2023-08-21T12:52:44;95105.34;;;35.87;20.25
41062;BME280;26812;42.662;23.352;2023-08-21T12:55:10;95108.97;;;36.02;20.52
41062;BME280;26812;42.662;23.352;2023-08-21T12:57:35;95099.56;;;35.82;21.38
41062;BME280;26812;42.662;23.352;2023-08-21T13:00:00;95084.69;;;35.52;21.36
41062;BME280;26812;42.662;23.352;2023-08-21T13:02:26;95080.75;;;35.58;21.94
41062;BME280;26812;42.662;23.352;2023-08-21T13:04:52;95083.00;;;35.45;21.43